createdAt,value
2024-03-03T00:01:35.948Z,48.20
2024-03-03T00:04:02.775Z,46.40
2024-03-03T00:06:29.520Z,49.10
2024-03-03T00:08:59.067Z,44.55
2024-03-03T00:11:25.907Z,47.97
2024-03-03T00:13:52.616Z,46.47
2024-03-03T00:16:19.455Z,47.83
2024-03-03T00:18:46.293Z,45.92
2024-03-03T00:21:13.900Z,49.63
2024-03-03T00:23:41.056Z,53.88
2024-03-03T00:26:07.857Z,48.08
2024-03-03T00:28:34.638Z,49.28
2024-03-03T00:31:07.663Z,47.92
2024-03-03T00:33:57.557Z,43.70
2024-03-03T00:36:25.237Z,47.55
2024-03-03T00:38:51.950Z,49.70
2024-03-03T00:41:18.720Z,52.65
2024-03-03T00:43:45.459Z,55.58
2024-03-03T00:46:12.386Z,49.03
2024-03-03T00:48:39.251Z,49.30
2024-03-03T00:51:06.141Z,54.15
2024-03-03T00:53:32.852Z,45.90
2024-03-03T00:55:59.639Z,51.75
2024-03-03T00:58:26.537Z,47.03
2024-03-03T01:00:54.031Z,52.85
2024-03-03T01:03:20.858Z,48.58
2024-03-03T01:05:47.603Z,45.80
2024-03-03T01:08:14.370Z,47.88
2024-03-03T01:10:41.152Z,47.50
2024-03-03T01:13:08.080Z,48.83
2024-03-03T01:15:34.838Z,47.70
2024-03-03T01:18:01.565Z,49.15
2024-03-03T01:20:28.339Z,48.92
2024-03-03T01:22:55.066Z,48.10
2024-03-03T01:25:21.921Z,45.35
2024-03-03T01:27:48.638Z,48.17
2024-03-03T01:30:15.406Z,52.45
2024-03-03T01:32:42.804Z,54.30
2024-03-03T01:35:09.569Z,47.53
2024-03-03T01:37:36.354Z,55.13
2024-03-03T01:40:03.407Z,47.47
2024-03-03T01:42:30.186Z,49.97
2024-03-03T01:44:56.923Z,48.30
2024-03-03T01:47:23.747Z,47.45
2024-03-03T01:49:52.162Z,48.65
2024-03-03T01:52:19.055Z,48.75
2024-03-03T01:54:45.970Z,44.75
2024-03-03T01:57:18.043Z,43.83
2024-03-03T01:59:44.737Z,42.92
2024-03-03T02:02:11.948Z,45.67
2024-03-03T02:04:39.492Z,49.22
2024-03-03T02:07:08.479Z,48.55
2024-03-03T02:09:35.810Z,42.30
2024-03-03T02:12:02.772Z,51.22
2024-03-03T02:14:29.674Z,49.63
2024-03-03T02:16:56.425Z,42.83
2024-03-03T02:19:23.982Z,40.17
2024-03-03T02:21:51.096Z,47.60
2024-03-03T02:24:18.215Z,41.95
2024-03-03T02:26:45.445Z,44.85
2024-03-03T02:29:12.295Z,39.22
2024-03-03T02:31:39.252Z,39.03
2024-03-03T02:34:06.128Z,42.80
2024-03-03T02:36:32.914Z,40.28
2024-03-03T02:38:59.837Z,42.42
2024-03-03T02:41:26.601Z,42.33
2024-03-03T02:43:53.362Z,41.63
2024-03-03T02:46:20.198Z,38.70
2024-03-03T02:48:47.063Z,41.80
2024-03-03T02:51:13.811Z,38.30
2024-03-03T02:53:40.628Z,41.35
2024-03-03T02:56:08.718Z,40.35
2024-03-03T02:58:35.814Z,43.72
2024-03-03T03:01:02.768Z,44.75
2024-03-03T03:03:29.575Z,36.78
2024-03-03T03:05:56.416Z,44.58
2024-03-03T03:08:23.172Z,41.45
2024-03-03T03:10:50.231Z,39.22
2024-03-03T03:13:17.137Z,38.55
2024-03-03T03:15:44.026Z,39.22
2024-03-03T03:18:10.887Z,41.17
2024-03-03T03:20:37.908Z,37.03
2024-03-03T03:23:04.800Z,42.00
2024-03-03T03:25:31.801Z,38.80
2024-03-03T03:27:58.627Z,37.45
2024-03-03T03:30:25.316Z,39.50
2024-03-03T03:32:52.143Z,46.17
2024-03-03T03:35:19.311Z,34.67
2024-03-03T03:37:46.229Z,43.80
2024-03-03T03:40:15.100Z,39.78
2024-03-03T03:42:42.272Z,36.67
2024-03-03T03:45:09.325Z,38.45
2024-03-03T03:47:36.310Z,42.03
2024-03-03T03:50:03.426Z,37.70
2024-03-03T03:52:30.230Z,39.05
2024-03-03T03:54:57.092Z,36.97
2024-03-03T03:57:23.882Z,35.50
2024-03-03T03:59:50.578Z,41.33
2024-03-03T04:02:17.697Z,38.50
2024-03-03T04:04:44.400Z,37.17
2024-03-03T04:07:11.268Z,34.40
2024-03-03T04:09:38.799Z,38.65
2024-03-03T04:12:06.082Z,41.85
2024-03-03T04:14:32.893Z,38.97
2024-03-03T04:16:59.813Z,38.78
2024-03-03T04:19:27.163Z,38.65
2024-03-03T04:21:54.203Z,37.85
2024-03-03T04:24:20.972Z,34.25
2024-03-03T04:26:47.778Z,34.83
2024-03-03T04:29:15.363Z,33.40
2024-03-03T04:31:43.952Z,34.60
2024-03-03T04:34:11.542Z,39.85
2024-03-03T04:36:38.325Z,41.05
2024-03-03T04:39:08.366Z,37.00
2024-03-03T04:41:35.445Z,37.92
2024-03-03T04:44:02.209Z,36.40
2024-03-03T04:46:28.999Z,43.25
2024-03-03T04:48:57.331Z,35.55
2024-03-03T04:51:24.063Z,39.05
2024-03-03T04:53:50.792Z,39.28
2024-03-03T04:56:20.338Z,39.90
2024-03-03T04:58:47.554Z,39.83
2024-03-03T05:01:14.321Z,39.78
2024-03-03T05:03:42.978Z,41.33
2024-03-03T05:06:09.793Z,37.13
2024-03-03T05:08:37.891Z,43.20
2024-03-03T05:11:04.700Z,41.47
2024-03-03T05:13:31.421Z,43.45
2024-03-03T05:15:58.189Z,40.38
2024-03-03T05:18:25.021Z,36.63
2024-03-03T05:20:51.776Z,42.30
2024-03-03T05:23:19.932Z,38.42
2024-03-03T05:25:47.132Z,40.72
2024-03-03T05:28:14.844Z,44.00
2024-03-03T05:30:42.194Z,39.40
2024-03-03T05:33:09.830Z,42.67
2024-03-03T05:35:40.002Z,40.03
2024-03-03T05:38:06.766Z,40.42
2024-03-03T05:40:33.540Z,39.65
2024-03-03T05:43:01.436Z,40.17
2024-03-03T05:45:28.273Z,42.28
2024-03-03T05:47:56.087Z,41.80
2024-03-03T05:50:22.993Z,37.65
2024-03-03T05:52:49.696Z,38.95
2024-03-03T05:55:16.495Z,37.28
2024-03-03T05:57:43.250Z,42.22
2024-03-03T06:00:10.555Z,39.70
2024-03-03T06:02:40.398Z,41.42
2024-03-03T06:05:07.569Z,41.70
2024-03-03T06:07:34.348Z,44.78
2024-03-03T06:10:01.332Z,42.17
2024-03-03T06:12:28.213Z,36.60
2024-03-03T06:14:55.655Z,38.85
2024-03-03T06:17:22.678Z,36.85
2024-03-03T06:19:49.431Z,33.95
2024-03-03T06:22:16.211Z,36.63
2024-03-03T06:24:43.173Z,41.22
2024-03-03T06:27:09.959Z,40.22
2024-03-03T06:29:36.762Z,38.45
2024-03-03T06:32:03.645Z,38.22
2024-03-03T06:34:30.388Z,44.08
2024-03-03T06:36:57.173Z,43.00
2024-03-03T06:39:23.997Z,42.05
2024-03-03T06:41:51.158Z,45.50
2024-03-03T06:44:18.402Z,38.35
2024-03-03T06:46:46.598Z,41.83
2024-03-03T06:49:13.978Z,43.58
2024-03-03T06:51:40.932Z,41.63
2024-03-03T06:54:07.801Z,40.72
2024-03-03T06:56:34.627Z,42.60
2024-03-03T06:59:01.567Z,41.38
2024-03-03T07:01:28.721Z,40.80
2024-03-03T07:04:14.587Z,36.72
2024-03-03T07:06:42.748Z,39.92
2024-03-03T07:09:10.363Z,42.92
2024-03-03T07:11:37.669Z,37.50
2024-03-03T07:14:05.072Z,40.13
2024-03-03T07:16:31.973Z,37.92
2024-03-03T07:18:59.952Z,43.22
2024-03-03T07:21:28.054Z,38.80
2024-03-03T07:23:54.864Z,38.80
2024-03-03T07:26:21.622Z,37.97
2024-03-03T07:28:48.366Z,41.53
2024-03-03T07:31:15.222Z,34.78
2024-03-03T07:33:42.073Z,35.88
2024-03-03T07:36:09.305Z,40.42
2024-03-03T07:38:36.705Z,42.00
2024-03-03T07:41:03.534Z,38.42
2024-03-03T07:43:30.761Z,41.33
2024-03-03T07:45:57.620Z,38.00
2024-03-03T07:48:24.471Z,40.03
2024-03-03T07:50:51.260Z,44.42
2024-03-03T07:53:18.340Z,45.30
2024-03-03T07:55:45.048Z,40.85
2024-03-03T07:58:12.252Z,39.85
2024-03-03T08:00:40.022Z,43.50
2024-03-03T08:03:11.051Z,43.05
2024-03-03T08:05:38.133Z,42.35
2024-03-03T08:08:06.665Z,44.58
2024-03-03T08:10:36.563Z,38.83
2024-03-03T08:13:03.326Z,43.03
2024-03-03T08:15:30.093Z,40.63
2024-03-03T08:18:00.528Z,36.85
2024-03-03T08:20:29.124Z,45.00
2024-03-03T08:22:56.037Z,41.45
2024-03-03T08:25:24.933Z,43.28
2024-03-03T08:27:51.998Z,43.53
2024-03-03T08:30:18.746Z,38.00
2024-03-03T08:32:45.536Z,43.08
2024-03-03T08:35:12.295Z,46.45
2024-03-03T08:37:39.134Z,43.58
2024-03-03T08:40:09.532Z,44.35
2024-03-03T08:42:36.790Z,43.92
2024-03-03T08:45:03.797Z,38.90
2024-03-03T08:47:30.859Z,39.85
2024-03-03T08:49:57.653Z,40.35
2024-03-03T08:52:24.405Z,41.58
2024-03-03T08:54:51.219Z,39.33
2024-03-03T08:57:17.977Z,44.33
2024-03-03T08:59:44.668Z,45.05
2024-03-03T09:02:11.464Z,43.63
2024-03-03T09:04:41.090Z,45.22
2024-03-03T09:07:09.293Z,39.60
2024-03-03T09:09:40.783Z,45.15
2024-03-03T09:14:44.419Z,42.90
2024-03-03T09:17:11.352Z,39.53
2024-03-03T09:19:38.141Z,45.88
2024-03-03T09:22:04.880Z,42.42
2024-03-03T09:24:31.647Z,46.20
2024-03-03T09:26:58.621Z,43.00
2024-03-03T09:29:25.729Z,39.30
2024-03-03T09:31:55.364Z,48.63
2024-03-03T09:34:22.306Z,43.40
2024-03-03T09:36:49.360Z,41.50
2024-03-03T09:39:16.224Z,41.10
2024-03-03T09:41:44.660Z,43.10
2024-03-03T09:44:12.835Z,41.88
2024-03-03T09:46:40.061Z,39.65
2024-03-03T09:49:21.804Z,42.10
2024-03-03T09:51:49.721Z,39.22
2024-03-03T09:54:19.159Z,38.58
2024-03-03T09:56:51.229Z,40.63
2024-03-03T09:59:18.384Z,43.37
2024-03-03T10:01:52.219Z,41.25
2024-03-03T10:04:19.613Z,38.97
2024-03-03T10:06:47.036Z,35.65
2024-03-03T10:09:16.838Z,40.22
2024-03-03T10:11:43.925Z,43.25
2024-03-03T10:14:11.448Z,39.97
2024-03-03T10:16:38.556Z,39.63
2024-03-03T10:19:06.341Z,39.20
2024-03-03T10:21:35.551Z,40.90
2024-03-03T10:24:22.654Z,37.88
2024-03-03T10:26:56.082Z,37.63
2024-03-03T10:31:55.524Z,37.05
2024-03-03T10:34:22.497Z,40.33
2024-03-03T10:36:49.666Z,34.72
2024-03-03T10:39:16.959Z,41.67
2024-03-03T10:41:43.700Z,39.05
2024-03-03T10:44:11.004Z,36.40
2024-03-03T10:46:39.782Z,34.92
2024-03-03T10:49:06.672Z,36.40
2024-03-03T10:51:34.753Z,37.80
2024-03-03T10:54:02.509Z,34.13
2024-03-03T10:56:29.997Z,38.50
2024-03-03T10:58:57.574Z,37.58
2024-03-03T11:01:25.524Z,36.38
2024-03-03T11:03:54.372Z,36.10
2024-03-03T11:06:22.846Z,36.17
2024-03-03T11:08:53.536Z,31.95
2024-03-03T11:11:25.511Z,38.70
2024-03-03T11:13:58.655Z,31.92
2024-03-03T11:16:32.242Z,32.80
2024-03-03T11:19:09.589Z,29.05
2024-03-03T11:21:39.582Z,29.58
2024-03-03T11:24:07.684Z,31.25
2024-03-03T11:26:42.604Z,26.20
2024-03-03T11:29:10.765Z,29.98
2024-03-03T11:31:38.997Z,25.05
2024-03-03T11:34:07.760Z,29.88
2024-03-03T11:36:36.451Z,29.65
2024-03-03T11:39:16.261Z,32.88
2024-03-03T11:41:43.768Z,32.88
2024-03-03T11:44:36.963Z,28.58
2024-03-03T11:47:04.716Z,29.48
2024-03-03T11:49:32.393Z,31.80
2024-03-03T11:51:59.259Z,32.90
2024-03-03T11:54:37.001Z,29.58
2024-03-03T11:57:07.285Z,33.05
2024-03-03T11:59:39.598Z,34.47
2024-03-03T12:02:06.588Z,29.60
2024-03-03T12:04:33.417Z,27.88
2024-03-03T12:07:00.398Z,29.02
2024-03-03T12:09:27.783Z,26.52
2024-03-03T12:11:54.864Z,28.80
2024-03-03T12:14:21.695Z,30.20
2024-03-03T12:16:48.455Z,33.30
2024-03-03T12:19:16.104Z,31.15
2024-03-03T12:21:43.689Z,32.47
2024-03-03T12:24:14.627Z,28.27
2024-03-03T12:26:41.408Z,26.40
2024-03-03T12:29:08.232Z,24.95
2024-03-03T12:31:35.007Z,30.90
2024-03-03T12:34:02.279Z,24.48
2024-03-03T12:36:29.067Z,26.20
2024-03-03T12:38:56.556Z,28.15
2024-03-03T12:41:23.406Z,25.25
2024-03-03T12:43:54.256Z,23.90
2024-03-03T12:46:21.121Z,26.40
2024-03-03T12:48:47.922Z,26.40
2024-03-03T12:51:14.697Z,24.10
2024-03-03T12:53:41.936Z,26.15
2024-03-03T12:56:22.597Z,25.65
2024-03-03T12:58:49.785Z,26.17
2024-03-03T13:01:17.891Z,27.50
2024-03-03T13:03:48.021Z,27.33
2024-03-03T13:06:18.137Z,24.35
2024-03-03T13:08:46.583Z,25.27
2024-03-03T13:11:13.734Z,23.42
2024-03-03T13:13:40.864Z,21.92
2024-03-03T13:16:11.449Z,24.50
2024-03-03T13:18:38.631Z,27.83
2024-03-03T13:21:15.432Z,21.50
2024-03-03T13:23:42.823Z,24.48
2024-03-03T13:26:10.664Z,20.60
2024-03-03T13:28:37.931Z,21.38
2024-03-03T13:31:06.122Z,23.25
2024-03-03T13:33:34.855Z,25.58
2024-03-03T13:36:03.231Z,20.15
2024-03-03T13:38:30.253Z,24.65
2024-03-03T13:40:57.247Z,23.20
2024-03-03T13:43:24.125Z,21.60
2024-03-03T13:45:51.095Z,20.45
2024-03-03T13:48:17.900Z,19.90
2024-03-03T13:50:44.853Z,20.73
2024-03-03T13:53:12.251Z,17.50
2024-03-03T13:55:39.238Z,21.45
2024-03-03T13:58:06.596Z,21.52
2024-03-03T14:00:33.788Z,16.85
2024-03-03T14:03:04.126Z,21.35
2024-03-03T14:05:32.991Z,20.88
2024-03-03T14:07:59.701Z,18.88
2024-03-03T14:10:27.689Z,19.35
2024-03-03T14:12:55.057Z,20.77
2024-03-03T14:15:22.103Z,12.80
2024-03-03T14:17:50.085Z,13.70
2024-03-03T14:20:17.803Z,16.10
2024-03-03T14:22:50.929Z,14.48
2024-03-03T14:25:18.093Z,14.63
2024-03-03T14:27:46.513Z,16.70
2024-03-03T14:30:13.897Z,13.75
2024-03-03T14:32:40.907Z,16.55
2024-03-03T14:35:08.609Z,14.05
2024-03-03T14:37:36.240Z,15.13
2024-03-03T14:40:04.065Z,16.45
2024-03-03T14:42:31.071Z,13.48
2024-03-03T14:44:57.856Z,18.35
2024-03-03T14:47:24.847Z,14.80
2024-03-03T14:49:51.889Z,17.48
2024-03-03T14:52:18.704Z,15.30
2024-03-03T14:54:48.279Z,16.13
2024-03-03T14:57:16.122Z,15.40
2024-03-03T14:59:43.521Z,13.30
2024-03-03T15:02:11.101Z,17.60
2024-03-03T15:04:38.406Z,15.27
2024-03-03T15:07:06.072Z,16.92
2024-03-03T15:09:32.845Z,15.27
2024-03-03T15:11:59.608Z,15.43
2024-03-03T15:14:26.412Z,15.75
2024-03-03T15:16:53.452Z,18.17
2024-03-03T15:19:20.238Z,19.45
2024-03-03T15:21:47.441Z,16.52
2024-03-03T15:24:14.152Z,14.90
2024-03-03T15:26:41.081Z,13.95
2024-03-03T15:29:08.000Z,14.93
2024-03-03T15:31:34.877Z,17.38
2024-03-03T15:34:03.053Z,18.10
2024-03-03T15:36:30.022Z,17.42
2024-03-03T15:38:57.069Z,18.42
2024-03-03T15:41:24.233Z,18.63
2024-03-03T15:43:51.179Z,17.83
2024-03-03T15:46:17.992Z,15.85
2024-03-03T15:48:44.831Z,19.40
2024-03-03T15:51:11.604Z,19.80
2024-03-03T15:53:38.345Z,15.80
2024-03-03T15:56:05.579Z,16.30
2024-03-03T15:58:34.084Z,13.75
2024-03-03T16:01:01.209Z,14.73
2024-03-03T16:03:28.120Z,17.55
2024-03-03T16:05:54.974Z,16.05
2024-03-03T16:08:21.806Z,16.63
2024-03-03T16:10:54.026Z,14.50
2024-03-03T16:13:21.253Z,12.73
2024-03-03T16:15:48.524Z,15.52
2024-03-03T16:18:15.309Z,17.35
2024-03-03T16:20:42.786Z,13.32
2024-03-03T16:23:09.562Z,14.43
2024-03-03T16:25:38.007Z,14.95
2024-03-03T16:28:05.408Z,13.85
2024-03-03T16:30:32.197Z,16.58
2024-03-03T16:32:59.568Z,10.82
2024-03-03T16:35:27.042Z,15.07
2024-03-03T16:37:55.995Z,12.60
2024-03-03T16:40:25.009Z,13.55
2024-03-03T16:43:00.253Z,13.52
2024-03-03T16:45:27.183Z,13.93
2024-03-03T16:47:57.344Z,11.88
2024-03-03T16:50:30.208Z,14.98
2024-03-03T16:52:57.288Z,12.40
2024-03-03T16:55:25.577Z,13.88
2024-03-03T16:57:57.752Z,12.13
2024-03-03T17:00:24.681Z,13.02
2024-03-03T17:02:51.357Z,12.82
2024-03-03T17:05:19.053Z,13.93
2024-03-03T17:07:46.080Z,13.50
2024-03-03T17:10:13.247Z,10.48
2024-03-03T17:12:40.392Z,16.20
2024-03-03T17:15:07.326Z,10.48
2024-03-03T17:17:34.617Z,9.98
2024-03-03T17:20:04.871Z,13.75
2024-03-03T17:22:31.850Z,11.52
2024-03-03T17:24:58.636Z,12.00
2024-03-03T17:27:25.414Z,12.40
2024-03-03T17:29:52.712Z,10.68
2024-03-03T17:32:19.606Z,9.40
2024-03-03T17:34:46.279Z,10.90
2024-03-03T17:37:13.046Z,12.20
2024-03-03T17:39:39.926Z,9.73
2024-03-03T17:42:07.162Z,10.70
2024-03-03T17:44:33.946Z,9.95
2024-03-03T17:47:00.652Z,11.63
2024-03-03T17:49:27.461Z,12.70
2024-03-03T17:51:54.634Z,9.93
2024-03-03T17:54:21.400Z,11.60
2024-03-03T17:56:48.993Z,12.55
2024-03-03T17:59:16.465Z,11.20
2024-03-03T18:01:43.679Z,12.60
2024-03-03T18:04:10.448Z,10.75
2024-03-03T18:06:37.252Z,8.93
2024-03-03T18:09:04.015Z,13.73
2024-03-03T18:11:30.926Z,11.55
2024-03-03T18:14:00.662Z,14.02
2024-03-03T18:16:27.515Z,16.25
2024-03-03T18:18:54.443Z,11.23
2024-03-03T18:21:21.374Z,10.23
2024-03-03T18:23:48.734Z,10.98
2024-03-03T18:26:15.650Z,12.40
2024-03-03T18:28:42.430Z,11.48
2024-03-03T18:31:09.187Z,11.82
2024-03-03T18:33:38.064Z,9.13
2024-03-03T18:36:05.681Z,10.80
2024-03-03T18:38:33.068Z,10.07
2024-03-03T18:40:59.934Z,11.60
2024-03-03T18:43:27.840Z,11.30
2024-03-03T18:45:54.920Z,11.85
2024-03-03T18:48:21.724Z,11.98
2024-03-03T18:50:48.583Z,10.60
2024-03-03T18:53:17.121Z,12.52
2024-03-03T18:55:44.099Z,10.25
2024-03-03T18:58:10.892Z,11.80
2024-03-03T19:00:40.457Z,32.53
2024-03-03T19:03:07.970Z,19.95
2024-03-03T19:05:34.809Z,16.80
2024-03-03T19:08:06.001Z,13.23
2024-03-03T19:10:33.420Z,10.00
2024-03-03T19:13:01.961Z,9.02
2024-03-03T19:15:28.908Z,9.05
2024-03-03T19:17:55.789Z,10.05
2024-03-03T19:20:23.179Z,9.48
2024-03-03T19:22:51.112Z,14.40
2024-03-03T19:25:18.148Z,10.43
2024-03-03T19:27:44.961Z,11.73
2024-03-03T19:30:11.767Z,14.52
2024-03-03T19:32:40.268Z,12.10
2024-03-03T19:35:10.099Z,9.73
2024-03-03T19:37:37.008Z,9.63
2024-03-03T19:40:05.127Z,9.15
2024-03-03T19:42:32.165Z,11.30
2024-03-03T19:44:59.014Z,16.08
2024-03-03T19:47:26.050Z,12.20
2024-03-03T19:49:53.419Z,15.38
2024-03-03T19:52:20.322Z,12.63
2024-03-03T19:54:47.199Z,13.32
2024-03-03T19:57:14.660Z,8.95
2024-03-03T19:59:42.137Z,9.32
2024-03-03T20:02:08.959Z,10.93
2024-03-03T20:04:35.928Z,13.93
2024-03-03T20:07:06.137Z,13.70
2024-03-03T20:09:34.534Z,12.75
2024-03-03T20:12:01.534Z,11.45
2024-03-03T20:14:28.427Z,15.85
2024-03-03T20:16:55.150Z,13.20
2024-03-03T20:19:22.316Z,12.48
2024-03-03T20:21:49.115Z,10.40
2024-03-03T20:24:17.171Z,11.35
2024-03-03T20:26:44.483Z,12.02
2024-03-03T20:29:13.797Z,9.73
2024-03-03T20:31:41.284Z,7.93
2024-03-03T20:34:08.725Z,8.18
2024-03-03T20:36:35.547Z,7.70
2024-03-03T20:39:02.267Z,8.35
2024-03-03T20:41:29.182Z,10.20
2024-03-03T20:43:56.520Z,11.32
2024-03-03T20:46:23.248Z,7.57
2024-03-03T20:48:49.988Z,8.07
2024-03-03T20:51:20.280Z,11.18
2024-03-03T20:53:47.194Z,9.25
2024-03-03T20:56:14.175Z,11.55
2024-03-03T20:58:41.108Z,10.95
2024-03-03T21:01:09.096Z,13.90
2024-03-03T21:03:35.954Z,23.17
2024-03-03T21:06:07.941Z,30.23
2024-03-03T21:08:35.158Z,33.88
2024-03-03T21:11:01.994Z,34.13
2024-03-03T21:13:29.061Z,25.30
2024-03-03T21:15:56.076Z,22.95
2024-03-03T21:18:23.270Z,28.38
2024-03-03T21:20:52.330Z,58.47
2024-03-03T21:23:19.424Z,39.35
2024-03-03T21:25:46.349Z,23.08
2024-03-03T21:28:13.862Z,20.10
2024-03-03T21:30:41.048Z,10.95
2024-03-03T21:33:08.507Z,11.80
2024-03-03T21:35:35.411Z,9.82
2024-03-03T21:38:04.337Z,9.93
2024-03-03T21:40:35.312Z,9.15
2024-03-03T21:43:02.243Z,11.00
2024-03-03T21:45:29.022Z,11.75
2024-03-03T21:47:55.785Z,11.63
2024-03-03T21:50:22.533Z,13.73
2024-03-03T21:52:49.310Z,10.63
2024-03-03T21:55:16.103Z,17.25
2024-03-03T21:57:43.143Z,33.85
2024-03-03T22:00:10.877Z,27.25
2024-03-03T22:02:39.356Z,33.38
2024-03-03T22:05:06.213Z,37.78
2024-03-03T22:07:33.093Z,31.58
2024-03-03T22:10:00.664Z,23.02
2024-03-03T22:12:27.771Z,21.05
2024-03-03T22:14:54.547Z,16.95
2024-03-03T22:17:21.737Z,17.85
2024-03-03T22:19:48.498Z,22.80
2024-03-03T22:22:15.597Z,14.98
2024-03-03T22:24:42.377Z,18.13
2024-03-03T22:27:09.494Z,12.40
2024-03-03T22:29:36.207Z,11.80
2024-03-03T22:32:02.950Z,15.15
2024-03-03T22:34:31.119Z,14.77
2024-03-03T22:36:58.722Z,13.52
2024-03-03T22:39:28.041Z,14.25
2024-03-03T22:41:54.793Z,12.48
2024-03-03T22:44:21.545Z,20.88
2024-03-03T22:46:48.311Z,13.95
2024-03-03T22:49:15.053Z,17.00
2024-03-03T22:51:41.914Z,15.75
2024-03-03T22:54:10.114Z,15.57
2024-03-03T22:56:36.928Z,17.77
2024-03-03T22:59:04.408Z,15.27
2024-03-03T23:01:31.328Z,11.13
2024-03-03T23:03:58.123Z,12.93
2024-03-03T23:06:24.925Z,13.98
2024-03-03T23:08:51.923Z,10.18
2024-03-03T23:11:19.767Z,13.43
2024-03-03T23:13:49.799Z,14.48
2024-03-03T23:16:20.600Z,14.82
2024-03-03T23:18:47.519Z,11.73
2024-03-03T23:21:14.474Z,16.63
2024-03-03T23:23:41.600Z,15.63
2024-03-03T23:26:11.488Z,13.63
2024-03-03T23:28:39.317Z,11.85
2024-03-03T23:31:06.369Z,14.63
2024-03-03T23:33:33.526Z,14.43
2024-03-03T23:36:00.767Z,17.92
2024-03-03T23:38:27.613Z,15.82
2024-03-03T23:40:54.336Z,14.10
2024-03-03T23:43:21.066Z,16.38
2024-03-03T23:45:48.024Z,17.00
2024-03-03T23:48:14.835Z,13.98
2024-03-03T23:50:41.609Z,12.50
2024-03-03T23:53:09.588Z,12.55
2024-03-03T23:55:37.376Z,12.57
2024-03-03T23:58:04.575Z,13.07
